Terminal Aerodrome Forecast
Issued by NWS Atlanta, GA

Home | Current Version | Previous Version | Text Only | Print | Product List | Glossary On
Versions: 1 2 3 4 5 6 7 8 9 10 11 12 13 14 15 16 17 18
000
FTUS42 KFFC 242320
TAFMCN
TAF
KMCN 242320Z 2500/2524 13005KT P6SM FEW080
     FM251000 09005KT P6SM BKN007
     FM251500 12005KT P6SM OVC015
     FM251700 13005KT P6SM VCSH BKN025
     FM252000 13005KT P6SM VCTS BKN035CB=

USA.gov is the U.S. government's official web portal to all federal, state and local government web resources and services.